Norwood, New York
Current Conditions -  °F | °C
As of 10:53 PM on Tuesday 21 Oct 2014 (Local Time) from KMSS Reporting Station
Overcast Overcast  
Wind Chill: 38°   Ceiling: 2300
Heat Index: 45°   Visibility: 10mi
Dew Point: 34°   Wind: 15mph
Humidity: 65%   Direction: 50°NE
Pressure: 30.16"   Gusts: 22mph
Location:  44.75°N, 74.99°W
Report Text: KMSS 220253Z AUTO 05013G19KT 10SM OVC023 07/01 A3016 RMK AO2 SLP216 T00720011 51017
Loading
Personal Weather Stations






























Interactive Weather Map
Tropical Storm Tracking
New forecast layout! Learn more

10-Day Weather Forecast

Advertisements
Track Severe Weather on mobile